sensor_id;sensor_type;location;lat;lon;timestamp;temperature;humidity
39825;DHT22;25503;52.532;13.640;2023-02-28T00:01:10;1.00;99.90
39825;DHT22;25503;52.532;13.640;2023-02-28T00:03:36;1.00;99.90
39825;DHT22;25503;52.532;13.640;2023-02-28T00:06:06;1.10;99.90
39825;DHT22;25503;52.532;13.640;2023-02-28T00:08:32;1.00;99.90
39825;DHT22;25503;52.532;13.640;2023-02-28T00:11:02;1.10;99.90
39825;DHT22;25503;52.532;13.640;2023-02-28T00:13:28;1.10;99.90
39825;DHT22;25503;52.532;13.640;2023-02-28T00:16:08;1.10;99.90
39825;DHT22;25503;52.532;13.640;2023-02-28T00:18:34;1.10;99.90
39825;DHT22;25503;52.532;13.640;2023-02-28T00:21:00;1.10;99.90
39825;DHT22;25503;52.532;13.640;2023-02-28T00:23:26;1.10;99.90
39825;DHT22;25503;52.532;13.640;2023-02-28T00:25:52;1.10;99.90
39825;DHT22;25503;52.532;13.640;2023-02-28T00:28:19;1.10;99.90
39825;DHT22;25503;52.532;13.640;2023-02-28T00:30:45;1.10;99.90
39825;DHT22;25503;52.532;13.640;2023-02-28T00:33:10;1.10;99.90
39825;DHT22;25503;52.532;13.640;2023-02-28T00:35:36;1.00;99.90
39825;DHT22;25503;52.532;13.640;2023-02-28T00:38:02;1.10;99.90
39825;DHT22;25503;52.532;13.640;2023-02-28T00:40:28;1.00;99.90
39825;DHT22;25503;52.532;13.640;2023-02-28T00:42:54;1.00;99.90
39825;DHT22;25503;52.532;13.640;2023-02-28T00:45:19;1.00;99.90
39825;DHT22;25503;52.532;13.640;2023-02-28T00:47:45;1.00;99.90
39825;DHT22;25503;52.532;13.640;2023-02-28T00:50:11;1.00;99.90
39825;DHT22;25503;52.532;13.640;2023-02-28T00:52:37;1.00;99.90
39825;DHT22;25503;52.532;13.640;2023-02-28T00:55:03;1.00;99.90
39825;DHT22;25503;52.532;13.640;2023-02-28T00:57:29;1.00;99.90
39825;DHT22;25503;52.532;13.640;2023-02-28T00:59:54;1.00;99.90
39825;DHT22;25503;52.532;13.640;2023-02-28T01:02:22;1.00;99.90
39825;DHT22;25503;52.532;13.640;2023-02-28T01:04:48;1.00;99.90
39825;DHT22;25503;52.532;13.640;2023-02-28T01:07:13;0.90;99.90
39825;DHT22;25503;52.532;13.640;2023-02-28T01:09:40;0.90;99.90
39825;DHT22;25503;52.532;13.640;2023-02-28T01:12:07;0.90;99.90
39825;DHT22;25503;52.532;13.640;2023-02-28T01:14:33;0.80;99.90
39825;DHT22;25503;52.532;13.640;2023-02-28T01:16:58;0.80;99.90
39825;DHT22;25503;52.532;13.640;2023-02-28T01:19:24;0.80;99.90
39825;DHT22;25503;52.532;13.640;2023-02-28T01:21:49;0.80;99.90
39825;DHT22;25503;52.532;13.640;2023-02-28T01:24:15;0.70;99.90
39825;DHT22;25503;52.532;13.640;2023-02-28T01:26:41;0.60;99.90
39825;DHT22;25503;52.532;13.640;2023-02-28T01:29:06;0.60;99.90
39825;DHT22;25503;52.532;13.640;2023-02-28T01:31:32;0.50;99.90
39825;DHT22;25503;52.532;13.640;2023-02-28T01:33:58;0.50;99.90
39825;DHT22;25503;52.532;13.640;2023-02-28T01:36:24;0.50;99.90
39825;DHT22;25503;52.532;13.640;2023-02-28T01:38:50;0.40;99.90
39825;DHT22;25503;52.532;13.640;2023-02-28T01:41:23;0.30;99.90
39825;DHT22;25503;52.532;13.640;2023-02-28T01:46:15;0.20;99.90
39825;DHT22;25503;52.532;13.640;2023-02-28T01:49:26;0.10;99.90
39825;DHT22;25503;52.532;13.640;2023-02-28T01:51:43;0.10;99.90
39825;DHT22;25503;52.532;13.640;2023-02-28T01:54:22;0.00;99.90
39825;DHT22;25503;52.532;13.640;2023-02-28T01:57:00;0.00;99.90
39825;DHT22;25503;52.532;13.640;2023-02-28T01:59:35;-0.10;99.90
39825;DHT22;25503;52.532;13.640;2023-02-28T02:02:02;-0.10;99.90
39825;DHT22;25503;52.532;13.640;2023-02-28T02:04:34;-0.20;99.90
39825;DHT22;25503;52.532;13.640;2023-02-28T02:07:01;-0.30;99.90
39825;DHT22;25503;52.532;13.640;2023-02-28T02:09:27;-0.30;99.90
39825;DHT22;25503;52.532;13.640;2023-02-28T02:11:55;-0.30;99.90
39825;DHT22;25503;52.532;13.640;2023-02-28T02:17:35;-0.40;99.90
39825;DHT22;25503;52.532;13.640;2023-02-28T02:20:43;-0.50;99.90
39825;DHT22;25503;52.532;13.640;2023-02-28T02:31:44;-0.70;99.90
39825;DHT22;25503;52.532;13.640;2023-02-28T02:34:24;-0.70;99.90
39825;DHT22;25503;52.532;13.640;2023-02-28T02:39:52;-0.70;99.90
39825;DHT22;25503;52.532;13.640;2023-02-28T02:42:36;-0.80;99.90
39825;DHT22;25503;52.532;13.640;2023-02-28T02:45:10;-0.80;99.90
39825;DHT22;25503;52.532;13.640;2023-02-28T02:47:37;-0.90;99.90
39825;DHT22;25503;52.532;13.640;2023-02-28T02:50:08;-0.90;99.90
39825;DHT22;25503;52.532;13.640;2023-02-28T02:52:41;-1.00;99.90
39825;DHT22;25503;52.532;13.640;2023-02-28T02:55:09;-1.00;99.90
39825;DHT22;25503;52.532;13.640;2023-02-28T02:58:14;-1.00;99.90
39825;DHT22;25503;52.532;13.640;2023-02-28T03:00:48;-1.10;99.90
39825;DHT22;25503;52.532;13.640;2023-02-28T03:03:17;-1.10;99.90
39825;DHT22;25503;52.532;13.640;2023-02-28T03:05:48;-1.20;99.90
39825;DHT22;25503;52.532;13.640;2023-02-28T03:08:14;-1.20;99.90
39825;DHT22;25503;52.532;13.640;2023-02-28T03:10:45;-1.30;99.90
39825;DHT22;25503;52.532;13.640;2023-02-28T03:19:17;-1.30;99.90
39825;DHT22;25503;52.532;13.640;2023-02-28T03:24:55;-1.40;99.90
39825;DHT22;25503;52.532;13.640;2023-02-28T03:27:33;-1.40;99.90
39825;DHT22;25503;52.532;13.640;2023-02-28T03:30:05;-1.40;99.90
39825;DHT22;25503;52.532;13.640;2023-02-28T03:35:23;-1.50;99.90
39825;DHT22;25503;52.532;13.640;2023-02-28T03:37:54;-1.60;99.90
39825;DHT22;25503;52.532;13.640;2023-02-28T03:40:23;-1.60;99.90
39825;DHT22;25503;52.532;13.640;2023-02-28T03:42:56;-1.70;99.90
39825;DHT22;25503;52.532;13.640;2023-02-28T03:45:26;-1.70;99.90
39825;DHT22;25503;52.532;13.640;2023-02-28T03:47:58;-1.70;99.90
39825;DHT22;25503;52.532;13.640;2023-02-28T03:50:29;-1.70;99.90
39825;DHT22;25503;52.532;13.640;2023-02-28T03:55:39;-1.70;99.90
39825;DHT22;25503;52.532;13.640;2023-02-28T03:58:22;-1.70;99.90
39825;DHT22;25503;52.532;13.640;2023-02-28T04:00:59;-1.80;99.90
39825;DHT22;25503;52.532;13.640;2023-02-28T04:03:33;-1.80;99.90
39825;DHT22;25503;52.532;13.640;2023-02-28T04:05:59;-1.90;99.90
39825;DHT22;25503;52.532;13.640;2023-02-28T04:08:25;-1.90;99.90
39825;DHT22;25503;52.532;13.640;2023-02-28T04:11:00;-1.90;99.90
39825;DHT22;25503;52.532;13.640;2023-02-28T04:13:27;-2.00;99.90
39825;DHT22;25503;52.532;13.640;2023-02-28T04:15:53;-2.00;99.90
39825;DHT22;25503;52.532;13.640;2023-02-28T04:18:18;-2.00;99.90
39825;DHT22;25503;52.532;13.640;2023-02-28T04:20:44;-2.00;99.90
39825;DHT22;25503;52.532;13.640;2023-02-28T04:23:09;-2.10;99.90
39825;DHT22;25503;52.532;13.640;2023-02-28T04:25:35;-2.10;99.90
39825;DHT22;25503;52.532;13.640;2023-02-28T04:28:01;-2.10;99.90
39825;DHT22;25503;52.532;13.640;2023-02-28T04:30:26;-2.10;99.90
39825;DHT22;25503;52.532;13.640;2023-02-28T04:32:52;-2.10;99.90
39825;DHT22;25503;52.532;13.640;2023-02-28T04:35:17;-2.10;99.90
39825;DHT22;25503;52.532;13.640;2023-02-28T04:37:43;-2.10;99.90
39825;DHT22;25503;52.532;13.640;2023-02-28T04:40:09;-2.20;99.90
39825;DHT22;25503;52.532;13.640;2023-02-28T04:42:35;-2.20;99.90
39825;DHT22;25503;52.532;13.640;2023-02-28T04:45:04;-2.20;99.90
39825;DHT22;25503;52.532;13.640;2023-02-28T04:47:30;-2.20;99.90
39825;DHT22;25503;52.532;13.640;2023-02-28T04:49:55;-2.20;99.90
39825;DHT22;25503;52.532;13.640;2023-02-28T04:52:21;-2.30;99.90
39825;DHT22;25503;52.532;13.640;2023-02-28T04:54:47;-2.30;99.90
39825;DHT22;25503;52.532;13.640;2023-02-28T04:57:12;-2.30;99.90
39825;DHT22;25503;52.532;13.640;2023-02-28T04:59:38;-2.30;99.90
39825;DHT22;25503;52.532;13.640;2023-02-28T05:02:04;-2.40;99.90
39825;DHT22;25503;52.532;13.640;2023-02-28T05:04:35;-2.40;99.90
39825;DHT22;25503;52.532;13.640;2023-02-28T05:07:02;-2.40;99.90
39825;DHT22;25503;52.532;13.640;2023-02-28T05:09:28;-2.40;99.90
39825;DHT22;25503;52.532;13.640;2023-02-28T05:11:54;-2.50;99.90
39825;DHT22;25503;52.532;13.640;2023-02-28T05:14:20;-2.50;99.90
39825;DHT22;25503;52.532;13.640;2023-02-28T05:16:45;-2.50;99.90
39825;DHT22;25503;52.532;13.640;2023-02-28T05:19:11;-2.50;99.90
39825;DHT22;25503;52.532;13.640;2023-02-28T05:21:41;-2.50;99.90
39825;DHT22;25503;52.532;13.640;2023-02-28T05:24:11;-2.50;99.90
39825;DHT22;25503;52.532;13.640;2023-02-28T05:26:39;-2.50;99.90
39825;DHT22;25503;52.532;13.640;2023-02-28T05:29:05;-2.50;99.90
39825;DHT22;25503;52.532;13.640;2023-02-28T05:31:32;-2.60;99.90
39825;DHT22;25503;52.532;13.640;2023-02-28T05:33:57;-2.60;99.90
39825;DHT22;25503;52.532;13.640;2023-02-28T05:36:23;-2.60;99.90
39825;DHT22;25503;52.532;13.640;2023-02-28T05:38:50;-2.60;99.90
39825;DHT22;25503;52.532;13.640;2023-02-28T05:41:17;-2.70;99.90
39825;DHT22;25503;52.532;13.640;2023-02-28T05:43:44;-2.70;99.90
39825;DHT22;25503;52.532;13.640;2023-02-28T05:46:11;-2.70;99.90
39825;DHT22;25503;52.532;13.640;2023-02-28T05:48:38;-2.70;99.90
39825;DHT22;25503;52.532;13.640;2023-02-28T05:51:05;-2.70;99.90
39825;DHT22;25503;52.532;13.640;2023-02-28T05:53:31;-2.70;99.90
39825;DHT22;25503;52.532;13.640;2023-02-28T05:55:57;-2.80;99.90
39825;DHT22;25503;52.532;13.640;2023-02-28T05:58:23;-2.90;99.90
39825;DHT22;25503;52.532;13.640;2023-02-28T06:00:51;-2.90;99.90
39825;DHT22;25503;52.532;13.640;2023-02-28T06:03:16;-2.90;99.90
39825;DHT22;25503;52.532;13.640;2023-02-28T06:05:42;-2.90;99.90
39825;DHT22;25503;52.532;13.640;2023-02-28T06:08:08;-2.90;99.90
39825;DHT22;25503;52.532;13.640;2023-02-28T06:10:34;-2.90;99.90
39825;DHT22;25503;52.532;13.640;2023-02-28T06:13:01;-3.00;99.90
39825;DHT22;25503;52.532;13.640;2023-02-28T06:15:28;-3.00;99.90
39825;DHT22;25503;52.532;13.640;2023-02-28T06:17:54;-2.90;99.90
39825;DHT22;25503;52.532;13.640;2023-02-28T06:20:22;-2.90;99.90
39825;DHT22;25503;52.532;13.640;2023-02-28T06:22:48;-2.90;99.90
39825;DHT22;25503;52.532;13.640;2023-02-28T06:25:16;-2.90;99.90
39825;DHT22;25503;52.532;13.640;2023-02-28T06:27:42;-2.90;99.90
39825;DHT22;25503;52.532;13.640;2023-02-28T06:30:09;-2.90;99.90
39825;DHT22;25503;52.532;13.640;2023-02-28T06:32:35;-2.80;99.90
39825;DHT22;25503;52.532;13.640;2023-02-28T06:35:02;-2.80;99.90
39825;DHT22;25503;52.532;13.640;2023-02-28T06:37:27;-2.80;99.90
39825;DHT22;25503;52.532;13.640;2023-02-28T06:39:54;-2.80;99.90
39825;DHT22;25503;52.532;13.640;2023-02-28T06:42:22;-2.80;99.90
39825;DHT22;25503;52.532;13.640;2023-02-28T06:44:51;-2.80;99.90
39825;DHT22;25503;52.532;13.640;2023-02-28T06:47:16;-2.80;99.90
39825;DHT22;25503;52.532;13.640;2023-02-28T06:49:42;-2.80;99.90
39825;DHT22;25503;52.532;13.640;2023-02-28T06:52:08;-2.70;99.90
39825;DHT22;25503;52.532;13.640;2023-02-28T06:54:36;-2.70;99.90
39825;DHT22;25503;52.532;13.640;2023-02-28T06:57:02;-2.70;99.90
39825;DHT22;25503;52.532;13.640;2023-02-28T06:59:29;-2.60;99.90
39825;DHT22;25503;52.532;13.640;2023-02-28T07:01:54;-2.60;99.90
39825;DHT22;25503;52.532;13.640;2023-02-28T07:04:21;-2.60;99.90
39825;DHT22;25503;52.532;13.640;2023-02-28T07:06:46;-2.50;99.90
39825;DHT22;25503;52.532;13.640;2023-02-28T07:09:12;-2.50;99.90
39825;DHT22;25503;52.532;13.640;2023-02-28T07:11:39;-2.40;99.90
39825;DHT22;25503;52.532;13.640;2023-02-28T07:14:06;-2.40;99.90
39825;DHT22;25503;52.532;13.640;2023-02-28T07:16:32;-2.30;99.90
39825;DHT22;25503;52.532;13.640;2023-02-28T07:18:57;-2.30;99.90
39825;DHT22;25503;52.532;13.640;2023-02-28T07:21:23;-2.20;99.90
39825;DHT22;25503;52.532;13.640;2023-02-28T07:23:49;-2.10;99.90
39825;DHT22;25503;52.532;13.640;2023-02-28T07:26:16;-2.10;99.90
39825;DHT22;25503;52.532;13.640;2023-02-28T07:28:43;-2.00;99.90
39825;DHT22;25503;52.532;13.640;2023-02-28T07:31:10;-1.90;99.90
39825;DHT22;25503;52.532;13.640;2023-02-28T07:33:37;-1.90;99.90
39825;DHT22;25503;52.532;13.640;2023-02-28T07:36:04;-1.80;99.90
39825;DHT22;25503;52.532;13.640;2023-02-28T07:38:30;-1.60;99.90
39825;DHT22;25503;52.532;13.640;2023-02-28T07:40:58;-1.50;99.90
39825;DHT22;25503;52.532;13.640;2023-02-28T07:43:24;-1.40;99.90
39825;DHT22;25503;52.532;13.640;2023-02-28T07:45:49;-1.20;99.90
39825;DHT22;25503;52.532;13.640;2023-02-28T07:48:15;-1.20;99.90
39825;DHT22;25503;52.532;13.640;2023-02-28T07:50:41;-1.00;99.90
39825;DHT22;25503;52.532;13.640;2023-02-28T07:53:08;-0.90;99.90
39825;DHT22;25503;52.532;13.640;2023-02-28T07:55:34;-0.80;99.90
39825;DHT22;25503;52.532;13.640;2023-02-28T07:58:00;-0.70;99.90
39825;DHT22;25503;52.532;13.640;2023-02-28T08:00:25;-0.60;99.90
39825;DHT22;25503;52.532;13.640;2023-02-28T08:02:51;-0.50;99.90
39825;DHT22;25503;52.532;13.640;2023-02-28T08:05:17;-0.40;99.90
39825;DHT22;25503;52.532;13.640;2023-02-28T08:07:44;-0.30;99.90
39825;DHT22;25503;52.532;13.640;2023-02-28T08:10:10;-0.20;99.90
39825;DHT22;25503;52.532;13.640;2023-02-28T08:12:36;0.00;99.90
39825;DHT22;25503;52.532;13.640;2023-02-28T08:15:01;0.10;99.90
39825;DHT22;25503;52.532;13.640;2023-02-28T08:17:27;0.30;99.90
39825;DHT22;25503;52.532;13.640;2023-02-28T08:19:53;0.30;99.90
39825;DHT22;25503;52.532;13.640;2023-02-28T08:22:18;0.40;99.90
39825;DHT22;25503;52.532;13.640;2023-02-28T08:24:44;0.50;99.90
39825;DHT22;25503;52.532;13.640;2023-02-28T08:27:10;0.60;99.90
39825;DHT22;25503;52.532;13.640;2023-02-28T08:29:38;0.70;99.90
39825;DHT22;25503;52.532;13.640;2023-02-28T08:32:05;0.80;99.90
39825;DHT22;25503;52.532;13.640;2023-02-28T08:34:31;0.90;99.90
39825;DHT22;25503;52.532;13.640;2023-02-28T08:36:57;1.00;99.90
39825;DHT22;25503;52.532;13.640;2023-02-28T08:39:23;1.10;99.90
39825;DHT22;25503;52.532;13.640;2023-02-28T08:41:48;1.30;99.90
39825;DHT22;25503;52.532;13.640;2023-02-28T08:44:14;1.40;99.90
39825;DHT22;25503;52.532;13.640;2023-02-28T08:46:40;1.60;99.90
39825;DHT22;25503;52.532;13.640;2023-02-28T08:49:05;1.70;99.90
39825;DHT22;25503;52.532;13.640;2023-02-28T08:51:32;1.80;99.90
39825;DHT22;25503;52.532;13.640;2023-02-28T08:53:59;1.90;99.90
39825;DHT22;25503;52.532;13.640;2023-02-28T08:56:27;2.00;99.90
39825;DHT22;25503;52.532;13.640;2023-02-28T08:58:54;2.00;99.90
39825;DHT22;25503;52.532;13.640;2023-02-28T09:01:23;2.10;99.90
39825;DHT22;25503;52.532;13.640;2023-02-28T09:03:50;2.10;99.90
39825;DHT22;25503;52.532;13.640;2023-02-28T09:06:18;2.20;99.90
39825;DHT22;25503;52.532;13.640;2023-02-28T09:08:44;2.30;99.90
39825;DHT22;25503;52.532;13.640;2023-02-28T09:11:10;2.40;99.90
39825;DHT22;25503;52.532;13.640;2023-02-28T09:13:37;2.40;99.90
39825;DHT22;25503;52.532;13.640;2023-02-28T09:16:04;2.50;99.90
39825;DHT22;25503;52.532;13.640;2023-02-28T09:18:30;2.60;99.90
39825;DHT22;25503;52.532;13.640;2023-02-28T09:20:56;2.70;99.90
39825;DHT22;25503;52.532;13.640;2023-02-28T09:23:23;2.70;99.90
39825;DHT22;25503;52.532;13.640;2023-02-28T09:25:51;2.80;99.90
39825;DHT22;25503;52.532;13.640;2023-02-28T09:28:17;2.90;99.90
39825;DHT22;25503;52.532;13.640;2023-02-28T09:30:48;3.00;99.90
39825;DHT22;25503;52.532;13.640;2023-02-28T09:33:15;3.10;99.90
39825;DHT22;25503;52.532;13.640;2023-02-28T09:35:41;3.30;99.90
39825;DHT22;25503;52.532;13.640;2023-02-28T09:38:08;3.40;99.90
39825;DHT22;25503;52.532;13.640;2023-02-28T09:40:51;3.40;99.90
39825;DHT22;25503;52.532;13.640;2023-02-28T09:43:18;3.60;99.90
39825;DHT22;25503;52.532;13.640;2023-02-28T09:46:28;3.70;99.90
39825;DHT22;25503;52.532;13.640;2023-02-28T09:48:52;3.90;99.90
39825;DHT22;25503;52.532;13.640;2023-02-28T09:54:03;4.00;99.90
39825;DHT22;25503;52.532;13.640;2023-02-28T09:56:40;4.10;99.90
39825;DHT22;25503;52.532;13.640;2023-02-28T10:04:22;4.40;99.90
39825;DHT22;25503;52.532;13.640;2023-02-28T10:06:53;4.60;99.90
39825;DHT22;25503;52.532;13.640;2023-02-28T10:09:25;4.80;99.90
39825;DHT22;25503;52.532;13.640;2023-02-28T10:11:53;5.00;99.90
39825;DHT22;25503;52.532;13.640;2023-02-28T10:14:23;5.20;99.90
39825;DHT22;25503;52.532;13.640;2023-02-28T10:16:56;5.50;99.90
39825;DHT22;25503;52.532;13.640;2023-02-28T10:19:39;5.60;99.90
39825;DHT22;25503;52.532;13.640;2023-02-28T10:22:14;5.90;99.90
39825;DHT22;25503;52.532;13.640;2023-02-28T10:24:46;6.20;99.90
39825;DHT22;25503;52.532;13.640;2023-02-28T10:27:18;6.30;99.90
39825;DHT22;25503;52.532;13.640;2023-02-28T10:29:52;6.60;99.90
39825;DHT22;25503;52.532;13.640;2023-02-28T10:32:21;6.80;99.90
39825;DHT22;25503;52.532;13.640;2023-02-28T10:34:53;6.90;99.90
39825;DHT22;25503;52.532;13.640;2023-02-28T10:37:22;6.90;99.90
39825;DHT22;25503;52.532;13.640;2023-02-28T10:39:47;7.10;99.90
39825;DHT22;25503;52.532;13.640;2023-02-28T10:42:24;7.20;99.90
39825;DHT22;25503;52.532;13.640;2023-02-28T10:45:05;7.30;99.90
39825;DHT22;25503;52.532;13.640;2023-02-28T10:47:32;7.50;99.90
39825;DHT22;25503;52.532;13.640;2023-02-28T10:49:59;7.60;99.90
39825;DHT22;25503;52.532;13.640;2023-02-28T10:52:39;7.50;99.90
39825;DHT22;25503;52.532;13.640;2023-02-28T10:55:25;7.50;99.90
39825;DHT22;25503;52.532;13.640;2023-02-28T10:57:52;7.50;99.90
39825;DHT22;25503;52.532;13.640;2023-02-28T11:00:25;7.50;99.90
39825;DHT22;25503;52.532;13.640;2023-02-28T11:02:56;7.40;99.90
39825;DHT22;25503;52.532;13.640;2023-02-28T11:05:32;7.50;99.90
39825;DHT22;25503;52.532;13.640;2023-02-28T11:08:14;7.60;99.90
39825;DHT22;25503;52.532;13.640;2023-02-28T11:10:45;7.70;99.90
39825;DHT22;25503;52.532;13.640;2023-02-28T11:13:20;7.80;99.90
39825;DHT22;25503;52.532;13.640;2023-02-28T11:15:52;8.00;99.90
39825;DHT22;25503;52.532;13.640;2023-02-28T11:18:27;8.00;99.90
39825;DHT22;25503;52.532;13.640;2023-02-28T11:20:56;8.20;99.90
39825;DHT22;25503;52.532;13.640;2023-02-28T11:23:28;8.30;99.90
39825;DHT22;25503;52.532;13.640;2023-02-28T11:25:58;8.30;99.90
39825;DHT22;25503;52.532;13.640;2023-02-28T11:28:33;8.40;99.90
39825;DHT22;25503;52.532;13.640;2023-02-28T11:33:53;8.40;99.90
39825;DHT22;25503;52.532;13.640;2023-02-28T11:36:27;8.50;99.90
39825;DHT22;25503;52.532;13.640;2023-02-28T11:38:56;8.50;99.90
39825;DHT22;25503;52.532;13.640;2023-02-28T11:44:06;8.40;99.90
39825;DHT22;25503;52.532;13.640;2023-02-28T11:46:49;8.40;99.90
39825;DHT22;25503;52.532;13.640;2023-02-28T11:52:02;8.60;99.90
39825;DHT22;25503;52.532;13.640;2023-02-28T11:55:02;8.80;99.90
39825;DHT22;25503;52.532;13.640;2023-02-28T11:57:56;8.90;99.90
39825;DHT22;25503;52.532;13.640;2023-02-28T12:08:31;8.90;99.90
39825;DHT22;25503;52.532;13.640;2023-02-28T12:11:16;8.70;99.90
39825;DHT22;25503;52.532;13.640;2023-02-28T12:25:40;9.10;99.90
39825;DHT22;25503;52.532;13.640;2023-02-28T12:28:13;9.10;99.90
39825;DHT22;25503;52.532;13.640;2023-02-28T12:30:48;9.00;99.90
39825;DHT22;25503;52.532;13.640;2023-02-28T12:33:15;9.00;99.90
39825;DHT22;25503;52.532;13.640;2023-02-28T12:38:17;9.20;99.90
39825;DHT22;25503;52.532;13.640;2023-02-28T12:40:56;9.20;99.90
39825;DHT22;25503;52.532;13.640;2023-02-28T12:43:27;9.40;99.90
39825;DHT22;25503;52.532;13.640;2023-02-28T12:46:00;9.50;99.90
39825;DHT22;25503;52.532;13.640;2023-02-28T12:50:59;9.60;99.90
39825;DHT22;25503;52.532;13.640;2023-02-28T12:53:38;9.60;99.90
39825;DHT22;25503;52.532;13.640;2023-02-28T12:59:22;9.50;99.90
39825;DHT22;25503;52.532;13.640;2023-02-28T13:01:56;9.50;99.90
39825;DHT22;25503;52.532;13.640;2023-02-28T13:09:59;9.10;99.90
39825;DHT22;25503;52.532;13.640;2023-02-28T13:12:26;9.00;99.90
39825;DHT22;25503;52.532;13.640;2023-02-28T13:15:13;9.00;99.90
39825;DHT22;25503;52.532;13.640;2023-02-28T13:17:42;8.90;99.90
39825;DHT22;25503;52.532;13.640;2023-02-28T13:20:23;8.70;99.90
39825;DHT22;25503;52.532;13.640;2023-02-28T13:22:51;8.50;99.90
39825;DHT22;25503;52.532;13.640;2023-02-28T13:28:02;8.20;99.90
39825;DHT22;25503;52.532;13.640;2023-02-28T13:33:37;8.00;99.90
39825;DHT22;25503;52.532;13.640;2023-02-28T13:38:53;7.70;99.90
39825;DHT22;25503;52.532;13.640;2023-02-28T13:58:01;7.10;99.90
39825;DHT22;25503;52.532;13.640;2023-02-28T14:03:11;7.00;99.90
39825;DHT22;25503;52.532;13.640;2023-02-28T14:05:38;6.90;99.90
39825;DHT22;25503;52.532;13.640;2023-02-28T14:08:21;6.80;99.90
39825;DHT22;25503;52.532;13.640;2023-02-28T14:11:02;6.80;99.90
39825;DHT22;25503;52.532;13.640;2023-02-28T14:13:46;6.70;99.90
39825;DHT22;25503;52.532;13.640;2023-02-28T14:16:24;6.70;99.90
39825;DHT22;25503;52.532;13.640;2023-02-28T14:19:00;6.60;99.90
39825;DHT22;25503;52.532;13.640;2023-02-28T14:21:34;6.60;99.90
39825;DHT22;25503;52.532;13.640;2023-02-28T14:27:14;6.50;99.90
39825;DHT22;25503;52.532;13.640;2023-02-28T14:32:51;6.40;99.90
39825;DHT22;25503;52.532;13.640;2023-02-28T14:37:51;6.30;99.90
39825;DHT22;25503;52.532;13.640;2023-02-28T14:40:24;6.20;99.90
39825;DHT22;25503;52.532;13.640;2023-02-28T14:42:59;6.20;99.90
39825;DHT22;25503;52.532;13.640;2023-02-28T14:45:29;6.10;99.90
39825;DHT22;25503;52.532;13.640;2023-02-28T14:47:56;6.10;99.90
39825;DHT22;25503;52.532;13.640;2023-02-28T14:50:27;6.00;99.90
39825;DHT22;25503;52.532;13.640;2023-02-28T14:52:55;6.00;99.90
39825;DHT22;25503;52.532;13.640;2023-02-28T14:55:29;6.00;99.90
39825;DHT22;25503;52.532;13.640;2023-02-28T14:58:02;5.90;99.90
39825;DHT22;25503;52.532;13.640;2023-02-28T15:00:48;5.90;99.90
39825;DHT22;25503;52.532;13.640;2023-02-28T15:03:38;5.90;99.90
39825;DHT22;25503;52.532;13.640;2023-02-28T15:06:11;5.80;99.90
39825;DHT22;25503;52.532;13.640;2023-02-28T15:08:37;5.80;99.90
39825;DHT22;25503;52.532;13.640;2023-02-28T15:11:16;5.80;99.90
39825;DHT22;25503;52.532;13.640;2023-02-28T15:13:44;5.70;99.90
39825;DHT22;25503;52.532;13.640;2023-02-28T15:16:17;5.70;99.90
39825;DHT22;25503;52.532;13.640;2023-02-28T15:18:54;5.60;99.90
39825;DHT22;25503;52.532;13.640;2023-02-28T15:21:23;5.60;99.90
39825;DHT22;25503;52.532;13.640;2023-02-28T15:24:06;5.50;99.90
39825;DHT22;25503;52.532;13.640;2023-02-28T15:26:37;5.50;99.90
39825;DHT22;25503;52.532;13.640;2023-02-28T15:29:19;5.50;99.90
39825;DHT22;25503;52.532;13.640;2023-02-28T15:31:49;5.50;99.90
39825;DHT22;25503;52.532;13.640;2023-02-28T15:34:41;5.40;99.90
39825;DHT22;25503;52.532;13.640;2023-02-28T15:37:40;5.40;99.90
39825;DHT22;25503;52.532;13.640;2023-02-28T15:40:26;5.40;99.90
39825;DHT22;25503;52.532;13.640;2023-02-28T15:43:12;5.30;99.90
39825;DHT22;25503;52.532;13.640;2023-02-28T15:45:55;5.30;99.90
39825;DHT22;25503;52.532;13.640;2023-02-28T15:50:54;5.20;99.90
39825;DHT22;25503;52.532;13.640;2023-02-28T15:53:24;5.20;99.90
39825;DHT22;25503;52.532;13.640;2023-02-28T15:56:20;5.10;99.90
39825;DHT22;25503;52.532;13.640;2023-02-28T15:58:47;5.10;99.90
39825;DHT22;25503;52.532;13.640;2023-02-28T16:01:20;5.10;99.90
39825;DHT22;25503;52.532;13.640;2023-02-28T16:03:52;5.00;99.90
39825;DHT22;25503;52.532;13.640;2023-02-28T16:06:38;5.00;99.90
39825;DHT22;25503;52.532;13.640;2023-02-28T16:09:08;5.00;99.90
39825;DHT22;25503;52.532;13.640;2023-02-28T16:11:37;4.90;99.90
39825;DHT22;25503;52.532;13.640;2023-02-28T16:14:04;4.90;99.90
39825;DHT22;25503;52.532;13.640;2023-02-28T16:16:31;4.80;99.90
39825;DHT22;25503;52.532;13.640;2023-02-28T16:18:57;4.80;99.90
39825;DHT22;25503;52.532;13.640;2023-02-28T16:21:25;4.70;99.90
39825;DHT22;25503;52.532;13.640;2023-02-28T16:23:51;4.70;99.90
39825;DHT22;25503;52.532;13.640;2023-02-28T16:26:26;4.70;99.90
39825;DHT22;25503;52.532;13.640;2023-02-28T16:28:54;4.60;99.90
39825;DHT22;25503;52.532;13.640;2023-02-28T16:31:20;4.50;99.90
39825;DHT22;25503;52.532;13.640;2023-02-28T16:33:46;4.40;99.90
39825;DHT22;25503;52.532;13.640;2023-02-28T16:36:18;4.40;99.90
39825;DHT22;25503;52.532;13.640;2023-02-28T16:38:43;4.40;99.90
39825;DHT22;25503;52.532;13.640;2023-02-28T16:41:13;4.30;99.90
39825;DHT22;25503;52.532;13.640;2023-02-28T16:43:44;4.20;99.90
39825;DHT22;25503;52.532;13.640;2023-02-28T16:46:11;4.20;99.90
39825;DHT22;25503;52.532;13.640;2023-02-28T16:48:37;4.10;99.90
39825;DHT22;25503;52.532;13.640;2023-02-28T16:51:04;4.00;99.90
39825;DHT22;25503;52.532;13.640;2023-02-28T16:53:30;3.90;99.90
39825;DHT22;25503;52.532;13.640;2023-02-28T16:55:56;3.90;99.90
39825;DHT22;25503;52.532;13.640;2023-02-28T16:58:22;3.80;99.90
39825;DHT22;25503;52.532;13.640;2023-02-28T17:00:52;3.70;99.90
39825;DHT22;25503;52.532;13.640;2023-02-28T17:03:25;3.60;99.90
39825;DHT22;25503;52.532;13.640;2023-02-28T17:05:53;3.50;99.90
39825;DHT22;25503;52.532;13.640;2023-02-28T17:08:19;3.40;99.90
39825;DHT22;25503;52.532;13.640;2023-02-28T17:10:45;3.30;99.90
39825;DHT22;25503;52.532;13.640;2023-02-28T17:13:11;3.20;99.90
39825;DHT22;25503;52.532;13.640;2023-02-28T17:15:37;3.10;99.90
39825;DHT22;25503;52.532;13.640;2023-02-28T17:18:04;3.00;99.90
39825;DHT22;25503;52.532;13.640;2023-02-28T17:20:30;2.90;99.90
39825;DHT22;25503;52.532;13.640;2023-02-28T17:22:56;2.80;99.90
39825;DHT22;25503;52.532;13.640;2023-02-28T17:25:23;2.80;99.90
39825;DHT22;25503;52.532;13.640;2023-02-28T17:27:49;2.70;99.90
39825;DHT22;25503;52.532;13.640;2023-02-28T17:30:23;2.60;99.90
39825;DHT22;25503;52.532;13.640;2023-02-28T17:32:49;2.50;99.90
39825;DHT22;25503;52.532;13.640;2023-02-28T17:35:15;2.40;99.90
39825;DHT22;25503;52.532;13.640;2023-02-28T17:37:41;2.30;99.90
39825;DHT22;25503;52.532;13.640;2023-02-28T17:40:13;2.20;99.90
39825;DHT22;25503;52.532;13.640;2023-02-28T17:42:39;2.10;99.90